ADDS METAR Data INFO
IDs: Format: Raw Decoded Include TAF

Data at: 0430 UTC 24 Apr 2018

KGYI 240415Z AUTO 00000KT 10SM CLR 15/11 A3005 RMK AO2 T01450105
KGYI 240355Z AUTO 00000KT 10SM CLR 14/11 A3005 RMK AO2 T01420107
KGYI 240335Z AUTO 00000KT 10SM CLR 14/11 A3005 RMK AO2 T01430110
KGYI 240315Z AUTO 00000KT 10SM CLR 15/11 A3004 RMK AO2 T01490110
KGYI 240255Z AUTO 00000KT 10SM CLR 16/11 A3004 RMK AO2 T01580107
KGYI 240235Z AUTO 05003KT 10SM CLR 17/11 A3003 RMK AO2 T01710112
KGYI 240215Z AUTO 01004KT 10SM CLR 17/11 A3002 RMK AO2 T01650109
KGYI 240155Z AUTO 00000KT 10SM SCT060 19/11 A3001 RMK AO2 T01880109
KGYI 240135Z AUTO 00000KT 10SM BKN060 19/11 A3001 RMK AO2 T01910110
KGYI 240115Z AUTO 00000KT 10SM SCT060 19/11 A3000 RMK AO2 T01920111
KGYI 240055Z AUTO 32003KT 10SM BKN060 20/11 A3000 RMK AO2 T01950114
KGYI 240035Z AUTO 35003KT 10SM BKN060 20/12 A3000 RMK AO2 T01960123
KGYI 240015Z AUTO 32004KT 10SM BKN060 22/12 A3000 RMK AO2 T02150119
KGYI 232355Z AUTO 34005KT 10SM SCT060 22/11 A3000 RMK AO2 T02200114 10226 20176
KGYI 232335Z AUTO 35004KT 10SM BKN060 21/12 A3000 RMK AO2 T02140116
KGYI 232315Z AUTO 35004KT 10SM BKN060 22/11 A3000 RMK AO2 T02180112
KGYI 232255Z AUTO 30006KT 10SM BKN060 22/11 A3000 RMK AO2 T02170112
KGYI 232235Z AUTO 31008KT 10SM BKN060 22/11 A3001 RMK AO2 T02190111
KGYI 232215Z AUTO 34007KT 10SM SCT048 BKN060 22/11 A3000 RMK AO2 T02180112
KGYI 232155Z AUTO 30008KT 10SM BKN050 22/11 A3001 RMK AO2 T02200113
KGYI 232135Z AUTO 32007KT 10SM BKN050 22/11 A3001 RMK AO2 T02150111
KGYI 232115Z AUTO 31006KT 10SM SCT044 OVC050 22/11 A3001 RMK AO2 T02180112
KGYI 232055Z AUTO 32006KT 10SM SCT044 OVC050 21/11 A3003 RMK AO2 T02080110
KGYI 232035Z AUTO 33005KT 10SM OVC045 21/11 A3004 RMK AO2 T02050114
KGYI 232015Z AUTO 32009KT 10SM OVC044 21/12 A3004 RMK AO2 T02090117
KGYI 231955Z AUTO 32005KT 10SM OVC042 20/11 A3005 RMK AO2 T02030112
KGYI 231935Z AUTO 29006KT 10SM BKN040 OVC045 20/11 A3006 RMK AO2 T02010113
KGYI 231915Z AUTO 32008KT 10SM BKN035 20/12 A3007 RMK AO2 T01990116
KGYI 231855Z AUTO 34008G17KT 10SM BKN035 19/12 A3008 RMK AO2 T01910115
KGYI 231835Z AUTO 32010G14KT 10SM BKN033 BKN039 19/11 A3008 RMK AO2 T01910111
KGYI 231815Z AUTO 31008KT 10SM BKN029 BKN035 19/12 A3009 RMK AO2 T01900115
KGYI 231755Z AUTO 32006KT 10SM SCT026 18/11 A3010 RMK AO2 T01770110 10180 20110
KGYI 231735Z AUTO 36007KT 10SM BKN026 18/12 A3010 RMK AO2 T01760115
KGYI 231715Z AUTO 36010G16KT 10SM OVC024 16/11 A3011 RMK AO2 T01610106
KGYI 231655Z AUTO 34011G16KT 10SM OVC022 16/10 A3011 RMK AO2 T01570104
KGYI 231635Z AUTO 32011G16KT 10SM OVC020 15/10 A3012 RMK AO2 T01510103
KGYI 231615Z AUTO 34012G18KT 10SM OVC020 15/10 A3012 RMK AO2 T01510101
KGYI 231555Z AUTO 34010KT 10SM OVC022 15/10 A3011 RMK AO2 T01490101
KGYI 231535Z AUTO 35012KT 10SM OVC020 15/10 A3011 RMK AO2 T01460102
KGYI 231515Z AUTO 34012G17KT 10SM OVC020 14/10 A3011 RMK AO2 T01400099
KGYI 231455Z AUTO 34011G18KT 10SM OVC020 14/10 A3010 RMK AO2 T01430101
KGYI 231435Z AUTO 34012KT 10SM BKN018 BKN026 14/10 A3010 RMK AO2 T01390098
KGYI 231415Z AUTO 33013G20KT 10SM BKN016 BKN024 14/10 A3010 RMK AO2 T01390099
KGYI 231355Z AUTO 35010G15KT 10SM OVC014 13/10 A3010 RMK AO2 T01280100
KGYI 231335Z AUTO 33012G15KT 10SM BKN016 13/10 A3010 RMK AO2 T01300100
KGYI 231315Z AUTO 32009KT 10SM CLR 13/10 A3009 RMK AO2 T01310102
KGYI 231255Z AUTO 30006KT 10SM CLR 12/10 A3008 RMK AO2 T01220101
KGYI 231235Z AUTO 29004KT 10SM CLR 11/10 A3007 RMK AO2 T01120099
KGYI 231215Z AUTO 30004KT 10SM SCT021 11/10 A3007 RMK AO2 T01120095
KGYI 231155Z AUTO 31004KT 10SM OVC021 12/10 A3006 RMK AO2 T01170098 10117 20096
KGYI 231135Z AUTO 31005KT 10SM OVC021 12/10 A3006 RMK AO2 T01150098
KGYI 231115Z AUTO 31006KT 10SM OVC019 11/10 A3005 RMK AO2 T01140096
KGYI 231055Z AUTO 31006KT 10SM OVC019 11/10 A3005 RMK AO2 T01110095
KGYI 231035Z AUTO 30004KT 10SM OVC019 11/09 A3005 RMK AO2 T01080093
KGYI 231015Z AUTO 30005KT 10SM OVC017 11/09 A3004 RMK AO2 T01080090
KGYI 230955Z AUTO 30007KT 10SM OVC015 11/09 A3004 RMK AO2 T01100090
KGYI 230935Z AUTO 30008KT 10SM OVC015 11/09 A3004 RMK AO2 T01100090
KGYI 230915Z AUTO 30007KT 10SM OVC015 11/09 A3004 RMK AO2 T01100091
KGYI 230855Z AUTO 31007KT 10SM OVC015 11/09 A3004 RMK AO2 T01120091
KGYI 230835Z AUTO 30009KT 10SM OVC015 11/09 A3004 RMK AO2 T01090088
KGYI 230815Z AUTO 30007KT 10SM BKN015 11/09 A3004 RMK AO2 T01050086
KGYI 230755Z AUTO 31006KT 10SM CLR 10/08 A3004 RMK AO2 T00960080
KGYI 230735Z AUTO 30005KT 10SM CLR 10/08 A3004 RMK AO2 T01000081
KGYI 230715Z AUTO 32004KT 10SM CLR 10/08 A3004 RMK AO2 T00990081
KGYI 230655Z AUTO 35006KT 10SM CLR 11/09 A3004 RMK AO2 T01050085
KGYI 230635Z AUTO 33005KT 10SM CLR 11/09 A3005 RMK AO2 T01070085
KGYI 230615Z AUTO 35007KT 10SM CLR 11/09 A3005 RMK AO2 T01130087
KGYI 230555Z AUTO 35005KT 10SM CLR 11/09 A3005 RMK AO2 T01120086 10160 20112 401750092
KGYI 230535Z AUTO 35006KT 10SM SCT050 12/09 A3004 RMK AO2 T01200088
KGYI 230515Z AUTO 34007KT 10SM BKN050 13/09 A3005 RMK AO2 T01280091
KGYI 230455Z AUTO 35007KT 10SM OVC050 13/10 A3005 RMK AO2 T01340095
KGYI 230435Z AUTO 34005KT 10SM OVC050 13/10 A3004 RMK AO2 T01300096
KGYI 230415Z AUTO 34005KT 10SM OVC050 13/10 A3005 RMK AO2 T01320097
KGYI 230355Z AUTO 00000KT 10SM BKN050 13/10 A3005 RMK AO2 T01300099
KGYI 230335Z AUTO 00000KT 10SM BKN050 13/10 A3005 RMK AO2 T01300100
KGYI 230315Z AUTO 00000KT 10SM OVC050 14/10 A3005 RMK AO2 T01350101
KGYI 230255Z AUTO 31003KT 10SM BKN050 14/10 A3005 RMK AO2 T01360098
KGYI 230235Z AUTO 27003KT 10SM SCT050 13/10 A3004 RMK AO2 T01330100
KGYI 230215Z AUTO 29003KT 10SM OVC050 14/10 A3004 RMK AO2 T01410100
KGYI 230155Z AUTO 00000KT 10SM BKN050 14/10 A3004 RMK AO2 T01410099
KGYI 230135Z AUTO 31003KT 10SM BKN047 OVC050 15/10 A3004 RMK AO2 T01480097
KGYI 230115Z AUTO 31004KT 10SM SCT045 OVC050 15/10 A3003 RMK AO2 T01500095
KGYI 230055Z AUTO 31004KT 10SM SCT045 OVC050 16/09 A3003 RMK AO2 T01550092
KGYI 230035Z AUTO 31004KT 10SM BKN045 OVC050 16/09 A3002 RMK AO2 T01560092
KGYI 230015Z AUTO 32005KT 10SM BKN045 OVC050 16/09 A3002 RMK AO2 T01580091
KGYI 222355Z AUTO 32008KT 10SM OVC050 16/09 A3002 RMK AO2 T01610088 10175 20147
KGYI 222335Z AUTO 31008KT 10SM SCT047 OVC055 16/09 A3002 RMK AO2 T01620086
KGYI 222315Z AUTO 31008KT 10SM SCT045 OVC055 17/08 A3002 RMK AO2 T01650083
KGYI 222255Z AUTO 31013KT 10SM SCT045 OVC049 16/08 A3002 RMK AO2 T01620083
KGYI 222235Z AUTO 32013G18KT 10SM SCT041 BKN047 OVC055 16/08 A3002 RMK AO2 T01640084
KGYI 222215Z AUTO 32014G17KT 10SM SCT039 BKN047 OVC055 16/09 A3002 RMK AO2 T01640085
KGYI 222155Z AUTO 32013G19KT 10SM BKN040 BKN046 OVC050 17/08 A3002 RMK AO2 T01670082
KGYI 222135Z AUTO 30012G19KT 10SM BKN040 17/08 A3002 RMK AO2 T01670083
KGYI 222115Z AUTO 32015KT 10SM SCT036 BKN045 17/09 A3003 RMK AO2 T01730086
KGYI 222055Z AUTO 30016KT 10SM SCT036 OVC045 17/09 A3004 RMK AO2 T01700085
KGYI 222035Z AUTO 32013G18KT 10SM SCT038 OVC047 16/09 A3005 RMK AO2 T01630085
KGYI 222015Z AUTO 31015G19KT 10SM BKN046 16/08 A3005 RMK AO2 T01600081
KGYI 221955Z AUTO 33016G21KT 10SM BKN043 BKN049 17/09 A3006 RMK AO2 T01680086
KGYI 221935Z AUTO 32016G22KT 10SM OVC040 15/08 A3007 RMK AO2 T01540076
KGYI 221915Z AUTO 33017G21KT 10SM BKN032 OVC039 16/08 A3007 RMK AO2 T01570079
KGYI 221855Z AUTO 30011G18KT 10SM OVC035 15/08 A3007 RMK AO2 T01490077
KGYI 221835Z AUTO 31014G20KT 10SM BKN033 15/08 A3007 RMK AO2 T01510076
KGYI 221815Z AUTO 31014G19KT 10SM SCT031 16/08 A3008 RMK AO2 T01580082
KGYI 221755Z AUTO 30011G18KT 10SM SCT029 15/08 A3008 RMK AO2 T01510076 10151 20092
KGYI 221735Z AUTO 30011G21KT 10SM SCT027 15/08 A3009 RMK AO2 T01480076
KGYI 221715Z AUTO 33015G21KT 10SM SCT027 14/08 A3009 RMK AO2 T01420075
KGYI 221655Z AUTO 33013G18KT 10SM SCT025 SCT032 14/08 A3009 RMK AO2 T01410079
KGYI 221635Z AUTO 31017G21KT 10SM BKN023 BKN030 13/07 A3010 RMK AO2 T01260071